Time;durP1;ratioP1;P1;durP2;ratioP2;P2;SDS_P1;SDS_P2;PMS_P1;PMS_P2;Temp;Humidity;BMP_temperature;BMP_pressure;BME280_temperature;BME280_humidity;BME280_pressure;Samples;Min_cycle;Max_cycle;Signal;HPM_P1;HPM_P2
2023/09/19 00:01:34;;;;;;;2.50;1.10;;;;;;;18.34;100.00;97682.50;5057012;28;20730;-72
2023/09/19 00:04:01;;;;;;;2.33;0.93;;;;;;;18.37;100.00;97685.44;5056942;28;20682;-72
2023/09/19 00:06:31;;;;;;;2.43;1.03;;;;;;;18.27;100.00;97685.47;5057254;28;20327;-72
2023/09/19 00:09:00;;;;;;;1.13;1.03;;;;;;;18.34;100.00;97688.72;5056815;28;20730;-72
2023/09/19 00:11:27;;;;;;;0.90;0.90;;;;;;;18.16;100.00;97689.28;5056791;28;20672;-72
2023/09/19 00:13:54;;;;;;;1.67;1.07;;;;;;;18.25;100.00;97702.97;5057096;28;20209;-72
2023/09/19 00:16:20;;;;;;;2.00;1.00;;;;;;;18.35;100.00;97706.47;5057020;28;20295;-72
2023/09/19 00:18:48;;;;;;;1.00;0.87;;;;;;;18.20;100.00;97711.88;5056983;28;20225;-72
2023/09/19 00:21:15;;;;;;;2.57;1.00;;;;;;;18.25;100.00;97705.66;5056655;28;20213;-72
2023/09/19 00:23:41;;;;;;;1.10;0.80;;;;;;;18.23;100.00;97721.28;5056633;28;20685;-72
2023/09/19 00:26:08;;;;;;;0.87;0.83;;;;;;;18.22;100.00;97715.09;5056860;28;20251;-72
2023/09/19 00:28:35;;;;;;;2.50;1.10;;;;;;;18.25;100.00;97711.03;5056769;28;20235;-72
2023/09/19 00:31:02;;;;;;;0.97;0.90;;;;;;;18.28;100.00;97716.66;5056661;28;20209;-72
2023/09/19 00:33:29;;;;;;;1.47;0.90;;;;;;;18.13;100.00;97718.63;5056395;28;20602;-72
2023/09/19 00:35:57;;;;;;;1.90;1.10;;;;;;;18.26;100.00;97709.97;5056588;28;20225;-72
2023/09/19 00:38:26;;;;;;;1.20;1.10;;;;;;;18.18;100.00;97716.72;5056585;28;20225;-72
2023/09/19 00:40:54;;;;;;;1.63;1.00;;;;;;;18.10;100.00;97717.28;5056606;28;20603;-72
2023/09/19 00:43:24;;;;;;;2.07;1.20;;;;;;;18.17;100.00;97717.00;5056287;28;20664;-72
2023/09/19 00:45:53;;;;;;;0.83;0.83;;;;;;;18.08;100.00;97722.16;5056500;28;20583;-72
2023/09/19 00:48:21;;;;;;;2.20;0.70;;;;;;;18.15;100.00;97725.34;5056370;28;20229;-72
2023/09/19 00:50:49;;;;;;;0.97;0.80;;;;;;;18.09;100.00;97736.41;5056390;28;20205;-72
2023/09/19 00:53:20;;;;;;;1.07;0.97;;;;;;;18.07;100.00;97723.22;5056394;28;20566;-72
2023/09/19 00:55:49;;;;;;;1.10;1.00;;;;;;;18.12;100.00;97735.84;5055952;28;20190;-72
2023/09/19 00:58:18;;;;;;;0.87;0.87;;;;;;;18.05;100.00;97736.13;5055924;28;20276;-72
2023/09/19 01:00:44;;;;;;;1.73;1.00;;;;;;;18.10;100.00;97743.41;5056168;28;20205;-72
2023/09/19 01:03:13;;;;;;;1.23;1.03;;;;;;;18.05;100.00;97735.34;5055482;28;20672;-72
2023/09/19 01:05:39;;;;;;;0.90;0.90;;;;;;;18.12;100.00;97751.97;5055737;28;20209;-72
2023/09/19 01:08:06;;;;;;;1.60;0.93;;;;;;;18.13;100.00;97748.22;5056032;28;20232;-72
2023/09/19 01:10:34;;;;;;;2.83;1.17;;;;;;;18.07;100.00;97749.31;5056067;28;20208;-72
2023/09/19 01:13:23;;;;;;;2.33;1.10;;;;;;;18.05;100.00;97749.59;5055658;28;20659;-72
2023/09/19 01:16:11;;;;;;;1.67;1.03;;;;;;;18.25;100.00;97749.53;5039224;28;20632;-72
2023/09/19 01:19:03;;;;;;;1.00;0.90;;;;;;;18.18;100.00;97751.69;5055839;28;20231;-72
2023/09/19 01:21:50;;;;;;;1.50;1.00;;;;;;;18.08;100.00;97751.75;5055844;28;20224;-72
2023/09/19 01:25:01;;;;;;;1.10;0.90;;;;;;;17.95;100.00;97754.19;5055695;28;20288;-72
2023/09/19 01:28:08;;;;;;;1.17;0.77;;;;;;;18.05;100.00;97754.97;5055640;28;20216;-72
2023/09/19 01:30:40;;;;;;;1.20;0.90;;;;;;;17.95;100.00;97746.94;5055650;28;20209;-72
2023/09/19 01:33:08;;;;;;;1.10;0.90;;;;;;;17.94;100.00;97757.94;5055618;28;20194;-72
2023/09/19 01:35:34;;;;;;;1.23;0.80;;;;;;;17.86;100.00;97756.63;5055280;28;20668;-72
2023/09/19 01:38:00;;;;;;;1.70;0.90;;;;;;;17.88;100.00;97748.28;5055346;28;20233;-72
2023/09/19 01:40:27;;;;;;;1.43;1.17;;;;;;;17.84;100.00;97756.09;5055488;28;20210;-72
2023/09/19 01:43:09;;;;;;;1.43;0.90;;;;;;;17.82;100.00;97752.88;5055159;28;20291;-72
2023/09/19 01:45:57;;;;;;;3.30;1.00;;;;;;;17.96;100.00;97764.66;5038806;28;20671;-72
2023/09/19 01:48:42;;;;;;;1.30;0.80;;;;;;;17.86;100.00;97756.63;5055480;28;20225;-72
2023/09/19 01:51:11;;;;;;;1.10;0.90;;;;;;;17.88;100.00;97757.19;5055334;28;20196;-72
2023/09/19 01:53:51;;;;;;;1.60;1.07;;;;;;;17.79;100.00;97763.38;5054890;28;20205;-72
2023/09/19 01:56:26;;;;;;;1.13;0.90;;;;;;;17.83;100.00;97761.75;5054831;28;20745;-72
2023/09/19 01:58:57;;;;;;;1.77;0.97;;;;;;;17.87;100.00;97774.38;5054838;28;20248;-72
2023/09/19 02:01:26;;;;;;;0.93;0.80;;;;;;;17.75;100.00;97771.19;5054768;28;20560;-72
2023/09/19 02:03:53;;;;;;;1.23;0.80;;;;;;;17.87;100.00;97776.28;5055052;28;20205;-72
2023/09/19 02:06:21;;;;;;;1.47;1.07;;;;;;;17.92;100.00;97779.75;5055021;28;20198;-72
2023/09/19 02:08:48;;;;;;;1.30;1.03;;;;;;;17.88;100.00;97784.06;5054906;28;20392;-72
2023/09/19 02:11:14;;;;;;;1.07;0.93;;;;;;;17.82;100.00;97778.97;5054611;28;20258;-72
2023/09/19 02:13:42;;;;;;;1.93;1.00;;;;;;;17.77;100.00;97784.34;5054873;28;20207;-72
2023/09/19 02:16:09;;;;;;;0.80;0.80;;;;;;;17.77;100.00;97798.59;5054721;28;20205;-72
2023/09/19 02:18:35;;;;;;;1.33;0.90;;;;;;;17.68;100.00;97792.16;5054751;28;20225;-72
2023/09/19 02:21:03;;;;;;;0.90;0.90;;;;;;;17.70;100.00;97789.19;5054751;28;20218;-72
2023/09/19 02:23:30;;;;;;;1.00;0.80;;;;;;;17.71;100.00;97788.13;5054680;28;20205;-72
2023/09/19 02:26:01;;;;;;;0.80;0.80;;;;;;;17.69;100.00;97788.38;5054282;28;20671;-72
2023/09/19 02:28:29;;;;;;;2.83;1.00;;;;;;;17.57;100.00;97800.50;5054525;28;20233;-73
2023/09/19 02:30:56;;;;;;;1.20;0.80;;;;;;;17.59;100.00;97801.00;5054515;28;20209;-73
2023/09/19 02:33:23;;;;;;;1.87;0.77;;;;;;;17.50;100.00;97794.59;5054163;28;20672;-73
2023/09/19 02:35:50;;;;;;;0.83;0.80;;;;;;;17.64;100.00;97798.34;5054456;28;20215;-73
2023/09/19 02:38:20;;;;;;;0.90;0.87;;;;;;;17.64;100.00;97796.44;5054265;28;20237;-73
2023/09/19 02:40:47;;;;;;;1.13;0.90;;;;;;;17.50;100.00;97800.75;5053974;28;20185;-73
2023/09/19 02:43:13;;;;;;;1.13;0.80;;;;;;;17.48;100.00;97797.53;5054244;28;20258;-72
2023/09/19 02:45:40;;;;;;;1.57;0.83;;;;;;;17.35;100.00;97802.59;5053902;28;20627;-72
2023/09/19 02:48:07;;;;;;;0.83;0.83;;;;;;;17.41;100.00;97807.75;5054065;28;20221;-72
2023/09/19 02:50:34;;;;;;;2.10;0.90;;;;;;;17.31;100.00;97810.41;5053876;28;20734;-72
2023/09/19 02:53:01;;;;;;;1.97;1.00;;;;;;;17.23;100.00;97820.88;5054156;28;20209;-72
2023/09/19 02:55:28;;;;;;;1.87;1.00;;;;;;;17.29;100.00;97811.75;5054071;28;20209;-72
2023/09/19 02:57:55;;;;;;;1.07;0.90;;;;;;;17.36;100.00;97817.63;5053709;28;20362;-72
2023/09/19 03:00:22;;;;;;;0.93;0.90;;;;;;;17.30;100.00;97810.66;5053619;28;20661;-72
2023/09/19 03:02:54;;;;;;;1.00;0.90;;;;;;;17.32;100.00;97813.91;5053544;28;20572;-72
2023/09/19 03:05:23;;;;;;;1.50;0.80;;;;;;;17.35;100.00;97818.72;5053885;28;20189;-72
2023/09/19 03:07:51;;;;;;;1.10;0.90;;;;;;;17.43;100.00;97816.34;5053804;28;20225;-72
2023/09/19 03:10:19;;;;;;;1.73;0.70;;;;;;;17.43;100.00;97818.22;5053507;28;20204;-72
2023/09/19 03:12:50;;;;;;;2.60;0.80;;;;;;;17.45;100.00;97822.25;5053771;28;20278;-72
2023/09/19 03:15:18;;;;;;;2.10;1.00;;;;;;;17.54;100.00;97819.84;5053490;28;20648;-72
2023/09/19 03:17:48;;;;;;;1.43;0.90;;;;;;;17.62;100.00;97817.44;5053220;28;20233;-72
2023/09/19 03:20:17;;;;;;;1.97;0.97;;;;;;;17.61;100.00;97823.91;5053316;28;20564;-72
2023/09/19 03:22:44;;;;;;;0.70;0.70;;;;;;;17.45;100.00;97819.56;5054034;28;20209;-72
2023/09/19 03:25:11;;;;;;;1.03;0.87;;;;;;;17.48;100.00;97819.03;5053279;28;20231;-72
2023/09/19 03:27:41;;;;;;;2.37;1.00;;;;;;;17.55;100.00;97824.94;5053100;28;20557;-72
2023/09/19 03:30:09;;;;;;;1.97;1.00;;;;;;;17.60;100.00;97821.47;5053461;28;20267;-72
2023/09/19 03:32:44;;;;;;;1.17;0.87;;;;;;;17.65;100.00;97819.56;5053093;28;20396;-72
2023/09/19 03:35:13;;;;;;;1.10;1.00;;;;;;;17.56;100.00;97828.44;5053299;28;20255;-72
2023/09/19 03:37:40;;;;;;;0.70;0.70;;;;;;;17.63;100.00;97827.09;5053189;28;20229;-72
2023/09/19 03:40:08;;;;;;;1.87;0.83;;;;;;;17.61;100.00;97820.38;5053381;28;20263;-72
2023/09/19 03:42:36;;;;;;;1.47;0.80;;;;;;;17.63;100.00;97826.28;5053361;28;20636;-72
2023/09/19 03:45:05;;;;;;;2.03;1.13;;;;;;;17.65;100.00;97822.25;5053059;28;20228;-72
2023/09/19 03:47:32;;;;;;;2.40;0.90;;;;;;;17.59;100.00;97823.34;5052999;28;20232;-72
2023/09/19 03:49:58;;;;;;;0.90;0.90;;;;;;;17.66;100.00;97831.13;5052997;28;20698;-72
2023/09/19 03:52:25;;;;;;;2.20;1.00;;;;;;;17.67;100.00;97820.13;5052972;28;20205;-72
2023/09/19 03:54:52;;;;;;;1.63;0.90;;;;;;;17.81;100.00;97825.75;5053181;28;20201;-72
2023/09/19 03:57:20;;;;;;;1.40;0.90;;;;;;;17.80;100.00;97835.72;5053032;28;20233;-72
2023/09/19 03:59:47;;;;;;;0.97;0.97;;;;;;;17.86;100.00;97823.03;5053809;28;20220;-72
2023/09/19 04:02:22;;;;;;;1.80;0.90;;;;;;;17.84;100.00;97835.97;5052963;28;20205;-73
2023/09/19 04:04:54;;;;;;;1.00;0.93;;;;;;;17.72;100.00;97838.13;5052495;28;20284;-73
2023/09/19 04:07:22;;;;;;;1.23;0.90;;;;;;;17.72;100.00;97838.94;5052983;28;20221;-73
2023/09/19 04:09:48;;;;;;;1.53;1.00;;;;;;;17.65;100.00;97837.59;5052687;28;20209;-73
2023/09/19 04:12:16;;;;;;;1.10;1.00;;;;;;;17.68;100.00;97835.16;5052929;28;20205;-73
2023/09/19 04:14:43;;;;;;;1.20;0.83;;;;;;;17.56;100.00;97834.63;5052753;28;20215;-73
2023/09/19 04:17:10;;;;;;;0.90;0.90;;;;;;;17.50;100.00;97829.53;5052746;28;20225;-73
2023/09/19 04:19:36;;;;;;;1.27;0.97;;;;;;;17.53;100.00;97835.19;5052852;28;20202;-73
2023/09/19 04:22:04;;;;;;;1.20;1.10;;;;;;;17.43;100.00;97829.78;5052526;28;20208;-73
2023/09/19 04:24:32;;;;;;;0.80;0.80;;;;;;;17.61;100.00;97829.28;5052684;28;20283;-73
2023/09/19 04:26:59;;;;;;;1.40;1.30;;;;;;;17.63;100.00;97835.16;5052534;28;20205;-73
2023/09/19 04:29:26;;;;;;;3.13;1.17;;;;;;;17.55;100.00;97843.75;5052946;28;20259;-73
2023/09/19 04:31:52;;;;;;;1.23;1.10;;;;;;;17.66;100.00;97834.66;5052734;28;20205;-73
2023/09/19 04:34:19;;;;;;;1.10;1.00;;;;;;;17.69;100.00;97836.78;5052586;28;20212;-73
2023/09/19 04:36:45;;;;;;;1.83;0.90;;;;;;;17.61;100.00;97840.03;5052398;28;20212;-73
2023/09/19 04:39:12;;;;;;;1.57;1.00;;;;;;;17.59;100.00;97838.66;5053494;28;20563;-73
2023/09/19 04:41:40;;;;;;;2.23;1.10;;;;;;;17.69;100.00;97841.38;5056218;28;20213;-73
2023/09/19 04:44:07;;;;;;;1.20;1.10;;;;;;;17.73;100.00;97840.53;5055884;28;20213;-73
2023/09/19 04:46:33;;;;;;;1.40;0.97;;;;;;;17.76;100.00;97850.78;5055989;28;20240;-73
2023/09/19 04:49:00;;;;;;;1.17;1.00;;;;;;;17.74;100.00;97852.13;5055897;28;20228;-73
2023/09/19 04:51:29;;;;;;;2.03;1.20;;;;;;;17.70;100.00;97849.16;5056063;28;20263;-73
2023/09/19 04:53:55;;;;;;;1.40;1.30;;;;;;;17.67;100.00;97863.13;5056051;28;20240;-73
2023/09/19 04:56:23;;;;;;;1.40;1.10;;;;;;;17.59;100.00;97860.97;5055957;28;20206;-73
2023/09/19 04:58:49;;;;;;;1.73;1.17;;;;;;;17.60;100.00;97872.53;5055489;28;20240;-73
2023/09/19 05:01:16;;;;;;;1.57;1.20;;;;;;;17.56;100.00;97874.16;5055698;28;20212;-73
2023/09/19 05:03:42;;;;;;;2.00;1.30;;;;;;;17.49;100.00;97874.41;5055871;28;20256;-73
2023/09/19 05:06:09;;;;;;;1.33;1.10;;;;;;;17.42;100.00;97875.75;5055574;28;20567;-73
2023/09/19 05:08:35;;;;;;;1.37;1.27;;;;;;;17.19;100.00;97884.25;5055081;28;20229;-73
2023/09/19 05:11:05;;;;;;;5.17;1.50;;;;;;;17.14;100.00;97882.34;5055861;28;20220;-73
2023/09/19 05:13:32;;;;;;;1.87;1.27;;;;;;;17.06;100.00;97877.50;5055372;28;20552;-73
2023/09/19 05:16:02;;;;;;;1.23;1.13;;;;;;;17.08;100.00;97879.91;5055543;28;20201;-73
2023/09/19 05:18:29;;;;;;;1.27;1.00;;;;;;;17.11;100.00;97874.84;5055628;28;20233;-73
2023/09/19 05:20:56;;;;;;;1.40;1.30;;;;;;;17.05;100.00;97875.88;5055294;28;20201;-73
2023/09/19 05:23:22;;;;;;;2.50;1.40;;;;;;;16.95;100.00;97894.66;5054780;28;20576;-73
2023/09/19 05:25:49;;;;;;;1.80;1.20;;;;;;;16.93;100.00;97898.69;5055385;28;20217;-73
2023/09/19 05:28:15;;;;;;;1.57;1.10;;;;;;;16.99;100.00;97903.00;5055179;28;20257;-73
2023/09/19 05:30:43;;;;;;;2.50;1.23;;;;;;;17.01;100.00;97904.34;5055172;28;20210;-73
2023/09/19 05:33:09;;;;;;;2.93;1.60;;;;;;;16.86;100.00;97900.78;5055375;28;20310;-73
2023/09/19 05:35:41;;;;;;;2.30;1.60;;;;;;;16.85;100.00;97904.53;5055123;28;20215;-73
2023/09/19 05:38:09;;;;;;;2.83;1.50;;;;;;;16.86;100.00;97917.72;5055010;28;20256;-73
2023/09/19 05:40:38;;;;;;;3.73;1.80;;;;;;;16.83;100.00;97925.50;5055093;28;20205;-73
2023/09/19 05:43:05;;;;;;;1.67;1.57;;;;;;;16.84;100.00;97921.72;5055149;28;20641;-72
2023/09/19 05:45:32;;;;;;;2.97;1.73;;;;;;;16.82;100.00;97922.00;5054832;28;20233;-72
2023/09/19 05:48:13;;;;;;;4.30;1.83;;;;;;;16.83;100.00;97931.66;5054759;28;20236;-72
2023/09/19 05:50:40;;;;;;;2.10;1.83;;;;;;;16.62;100.00;97934.50;5054226;28;20697;-71
2023/09/19 05:53:07;;;;;;;4.03;1.70;;;;;;;16.49;100.00;97945.69;5054660;28;20726;-71
2023/09/19 05:55:35;;;;;;;1.77;1.63;;;;;;;16.43;100.00;97952.91;5054452;28;20295;-71
2023/09/19 05:58:03;;;;;;;4.07;1.80;;;;;;;16.44;100.00;97951.84;5054098;28;20264;-71
2023/09/19 06:00:31;;;;;;;2.73;1.70;;;;;;;16.27;100.00;97953.84;5054967;28;20201;-71
2023/09/19 06:02:59;;;;;;;1.73;1.63;;;;;;;16.24;100.00;97957.03;5054713;28;20220;-71
2023/09/19 06:05:27;;;;;;;4.50;2.70;;;;;;;16.34;100.00;97964.34;5054804;28;20228;-71
2023/09/19 06:07:54;;;;;;;3.17;1.70;;;;;;;16.13;100.00;97966.06;5054625;28;20587;-71
2023/09/19 06:10:23;;;;;;;3.77;1.50;;;;;;;15.79;100.00;97970.03;5054228;28;20209;-71
2023/09/19 06:12:49;;;;;;;3.07;1.70;;;;;;;15.67;100.00;97958.69;5054446;28;20213;-71
2023/09/19 06:15:18;;;;;;;2.00;1.50;;;;;;;15.68;100.00;97968.34;5054496;28;20668;-71
2023/09/19 06:17:49;;;;;;;3.60;1.90;;;;;;;15.67;100.00;97969.41;5054434;28;20235;-71
2023/09/19 06:20:16;;;;;;;3.07;1.83;;;;;;;15.71;100.00;97970.53;5054159;28;20208;-71
2023/09/19 06:22:44;;;;;;;3.20;2.17;;;;;;;15.73;100.00;97972.94;5053806;28;20211;-71
2023/09/19 06:25:12;;;;;;;2.23;2.00;;;;;;;15.76;100.00;97967.06;5053598;28;20690;-71
2023/09/19 06:27:42;;;;;;;2.57;1.87;;;;;;;15.77;100.00;97969.50;5054002;28;20231;-71
2023/09/19 06:30:09;;;;;;;10.50;2.30;;;;;;;15.85;100.00;97970.91;5053650;28;20672;-71
2023/09/19 06:32:36;;;;;;;4.30;2.40;;;;;;;15.84;100.00;97970.09;5053792;28;20209;-71
2023/09/19 06:35:03;;;;;;;3.23;1.87;;;;;;;15.82;100.00;97972.22;5053855;28;20209;-72
2023/09/19 06:37:30;;;;;;;2.20;1.97;;;;;;;15.84;100.00;97964.72;5053743;28;20236;-72
2023/09/19 06:39:56;;;;;;;5.53;2.33;;;;;;;15.98;100.00;97971.31;5053733;28;20209;-72
2023/09/19 06:42:23;;;;;;;2.53;2.23;;;;;;;16.04;100.00;97975.66;5053785;28;20548;-72
2023/09/19 06:44:50;;;;;;;4.77;2.20;;;;;;;16.03;100.00;97978.56;5053677;28;20200;-72
2023/09/19 06:47:17;;;;;;;4.37;2.10;;;;;;;16.16;100.00;97981.66;5053611;28;20232;-72
2023/09/19 06:49:44;;;;;;;2.60;2.00;;;;;;;16.15;100.00;97988.06;5053872;28;20228;-71
2023/09/19 06:52:11;;;;;;;4.00;2.13;;;;;;;16.24;100.00;97986.53;5053345;28;20208;-71
2023/09/19 06:54:39;;;;;;;4.27;2.20;;;;;;;16.26;100.00;97984.41;5053573;28;20220;-71
2023/09/19 06:57:09;;;;;;;3.87;2.30;;;;;;;16.36;100.00;97989.84;5053603;28;20296;-71
2023/09/19 06:59:36;;;;;;;4.50;2.03;;;;;;;16.34;100.00;97986.63;5053223;28;20259;-71
2023/09/19 07:02:06;;;;;;;4.30;2.40;;;;;;;16.46;100.00;97989.94;5053009;28;20292;-71
2023/09/19 07:04:33;;;;;;;3.37;2.10;;;;;;;16.48;100.00;97993.19;5053394;28;20522;-71
2023/09/19 07:06:59;;;;;;;2.33;1.90;;;;;;;16.63;100.00;98003.22;5053157;28;20209;-71
2023/09/19 07:09:27;;;;;;;3.67;2.17;;;;;;;16.67;100.00;98007.00;5053155;28;20240;-71
2023/09/19 07:11:53;;;;;;;4.87;2.10;;;;;;;16.70;100.00;98014.56;5054421;28;20307;-71
2023/09/19 07:14:20;;;;;;;3.43;1.70;;;;;;;16.67;100.00;98021.25;5053402;28;20211;-72
2023/09/19 07:16:47;;;;;;;2.33;1.77;;;;;;;16.77;100.00;98029.38;5053196;28;20250;-72
2023/09/19 07:19:15;;;;;;;3.10;1.90;;;;;;;16.72;100.00;98020.47;5053385;28;20229;-72
2023/09/19 07:21:42;;;;;;;4.57;2.13;;;;;;;16.82;100.00;98021.34;5053463;28;20636;-72
2023/09/19 07:24:08;;;;;;;2.30;1.77;;;;;;;16.77;100.00;98026.69;5053314;28;20209;-72
2023/09/19 07:26:35;;;;;;;3.13;2.03;;;;;;;16.66;100.00;98026.88;5053135;28;20295;-72
2023/09/19 07:29:03;;;;;;;4.97;1.77;;;;;;;16.69;100.00;98031.72;5053723;28;20224;-72
2023/09/19 07:31:30;;;;;;;3.83;1.80;;;;;;;16.68;100.00;98030.91;5053145;28;20205;-72
2023/09/19 07:33:57;;;;;;;4.00;1.90;;;;;;;16.81;100.00;98030.47;5053139;28;20240;-72
2023/09/19 07:36:24;;;;;;;1.47;1.37;;;;;;;16.86;100.00;98032.34;5052851;28;20213;-72
2023/09/19 07:38:50;;;;;;;2.40;2.03;;;;;;;16.90;100.00;98036.97;5052933;28;20274;-72
2023/09/19 07:41:17;;;;;;;2.07;1.73;;;;;;;16.91;100.00;98043.94;5053244;28;20211;-72
2023/09/19 07:43:44;;;;;;;6.70;1.80;;;;;;;16.93;100.00;98035.63;5053310;28;20216;-72
2023/09/19 07:46:11;;;;;;;5.03;1.90;;;;;;;17.03;100.00;98043.75;5053197;28;20201;-72
2023/09/19 07:48:38;;;;;;;4.50;1.83;;;;;;;17.05;100.00;98047.78;5053644;28;20232;-72
2023/09/19 07:51:08;;;;;;;3.20;2.03;;;;;;;17.04;100.00;98046.19;5053148;28;20217;-72
2023/09/19 07:53:36;;;;;;;2.67;2.00;;;;;;;17.10;100.00;98041.66;5053100;28;20190;-72
2023/09/19 07:56:06;;;;;;;2.97;1.50;;;;;;;17.20;100.00;98053.22;5052797;28;20209;-72
2023/09/19 07:58:33;;;;;;;2.73;1.60;;;;;;;17.20;100.00;98063.19;5052629;28;20324;-72
2023/09/19 08:01:10;;;;;;;4.07;1.60;;;;;;;17.23;100.00;98062.69;5053037;28;20251;-72
2023/09/19 08:03:40;;;;;;;1.50;1.40;;;;;;;17.38;100.00;98060.06;5052747;28;20621;-72
2023/09/19 08:06:09;;;;;;;2.80;1.70;;;;;;;17.35;100.00;98068.63;5053111;28;20201;-72
2023/09/19 08:08:37;;;;;;;1.80;1.70;;;;;;;17.36;100.00;98081.00;5052927;28;20221;-72
2023/09/19 08:11:10;;;;;;;3.47;1.50;;;;;;;17.41;100.00;98067.63;5053073;28;20205;-72
2023/09/19 08:13:36;;;;;;;3.23;1.60;;;;;;;17.48;100.00;98079.78;5054849;28;20283;-72
2023/09/19 08:16:05;;;;;;;4.40;1.70;;;;;;;17.64;100.00;98078.75;5056596;28;20216;-72
2023/09/19 08:18:31;;;;;;;2.53;1.63;;;;;;;17.80;100.00;98076.91;5056226;28;20255;-72
2023/09/19 08:20:58;;;;;;;2.13;1.60;;;;;;;17.72;100.00;98072.88;5056796;28;20205;-72
2023/09/19 08:23:25;;;;;;;1.67;1.40;;;;;;;17.80;100.00;98075.06;5056392;28;20213;-72
2023/09/19 08:25:51;;;;;;;1.60;1.50;;;;;;;17.85;100.00;98080.44;5056982;28;20208;-72
2023/09/19 08:28:22;;;;;;;4.63;1.60;;;;;;;17.81;100.00;98078.53;5056220;28;20225;-73
2023/09/19 08:30:48;;;;;;;3.67;1.60;;;;;;;17.86;100.00;98076.66;5056658;28;20200;-73
2023/09/19 08:33:15;;;;;;;2.70;1.67;;;;;;;17.94;100.00;98078.84;5056548;28;20205;-73
2023/09/19 08:35:43;;;;;;;5.73;1.60;;;;;;;17.98;100.00;98079.94;5056538;28;20201;-73
2023/09/19 08:38:10;;;;;;;2.33;1.53;;;;;;;17.99;100.00;98076.19;5056278;28;20237;-73
2023/09/19 08:40:42;;;;;;;2.57;1.30;;;;;;;17.97;100.00;98089.06;5056052;28;20263;-73
2023/09/19 08:43:09;;;;;;;3.00;1.30;;;;;;;18.07;100.00;98093.69;5056018;28;20560;-73
2023/09/19 08:45:37;;;;;;;2.87;1.40;;;;;;;18.13;100.00;98084.53;5056422;28;20205;-73
2023/09/19 08:48:28;;;;;;;3.13;1.37;;;;;;;18.23;100.00;98088.06;5056242;28;20263;-73
2023/09/19 08:51:08;;;;;;;2.27;1.30;;;;;;;18.26;100.00;98086.72;5055945;28;20194;-75
2023/09/19 08:54:04;;;;;;;2.40;1.40;;;;;;;18.31;100.00;98095.63;5038784;28;20627;-73
2023/09/19 08:56:32;;;;;;;2.20;1.10;;;;;;;18.46;100.00;98092.97;5056080;28;20197;-73
2023/09/19 08:59:03;;;;;;;1.83;1.23;;;;;;;18.60;100.00;98094.03;5055380;28;20233;-73
2023/09/19 09:01:32;;;;;;;2.80;1.20;;;;;;;18.52;100.00;98099.16;5055970;28;20192;-73
2023/09/19 09:03:59;;;;;;;1.60;1.20;;;;;;;18.61;100.00;98090.28;5055668;28;20269;-73
2023/09/19 09:06:27;;;;;;;2.10;1.27;;;;;;;18.67;100.00;98093.78;5055360;28;20691;-73
2023/09/19 09:08:54;;;;;;;1.20;1.10;;;;;;;18.78;100.00;98098.09;5055712;28;20232;-73
2023/09/19 09:11:23;;;;;;;1.57;1.10;;;;;;;18.96;100.00;98092.94;5055563;28;20210;-73
2023/09/19 09:13:49;;;;;;;2.80;1.00;;;;;;;19.15;100.00;98102.09;5056017;28;20213;-73
2023/09/19 09:16:18;;;;;;;2.23;1.40;;;;;;;19.06;100.00;98102.91;5055637;28;20205;-72
2023/09/19 09:18:45;;;;;;;2.20;1.37;;;;;;;19.05;100.00;98102.09;5055363;28;20284;-72
2023/09/19 09:21:13;;;;;;;1.60;1.40;;;;;;;19.05;100.00;98102.09;5055159;28;20209;-72
2023/09/19 09:23:39;;;;;;;1.40;1.13;;;;;;;19.15;100.00;98104.81;5055516;28;20213;-73
2023/09/19 09:26:07;;;;;;;1.80;1.67;;;;;;;19.12;100.00;98109.91;5054480;28;20209;-73
2023/09/19 09:28:35;;;;;;;2.83;1.50;;;;;;;19.29;100.00;98113.97;5055051;28;20308;-73
2023/09/19 09:31:07;;;;;;;2.17;1.33;;;;;;;19.46;100.00;98114.44;5055318;28;20217;-73
2023/09/19 09:33:35;;;;;;;1.93;1.23;;;;;;;19.57;100.00;98114.44;5055293;28;20193;-72
2023/09/19 09:36:04;;;;;;;1.93;1.30;;;;;;;19.76;100.00;98105.44;5055241;28;20215;-73
2023/09/19 09:38:45;;;;;;;1.87;1.33;;;;;;;19.99;100.00;98104.78;5055219;28;20628;-73
2023/09/19 09:41:26;;;;;;;1.63;1.23;;;;;;;20.15;100.00;98098.28;5055259;28;20193;-73
2023/09/19 09:43:54;;;;;;;3.43;1.60;;;;;;;20.02;97.31;98106.94;5055164;28;20606;-73
2023/09/19 09:49:16;;;;;;;2.10;1.30;;;;;;;20.37;98.33;98106.78;5054792;28;20583;-72
2023/09/19 09:51:47;;;;;;;2.07;1.47;;;;;;;20.35;99.02;98108.94;5055160;28;20190;-72
2023/09/19 09:54:15;;;;;;;2.07;1.30;;;;;;;19.94;100.00;98101.34;5054864;28;20189;-72
2023/09/19 09:56:59;;;;;;;4.13;1.50;;;;;;;20.07;94.89;98101.53;5055080;28;20213;-72
2023/09/19 09:59:47;;;;;;;2.13;1.30;;;;;;;20.08;100.00;98099.66;5054480;28;20231;-73
2023/09/19 10:02:20;;;;;;;2.47;1.30;;;;;;;19.83;94.06;98102.44;5054128;28;20556;-72
2023/09/19 10:04:55;;;;;;;1.23;1.00;;;;;;;19.90;95.45;98102.97;5037823;28;20193;-72
2023/09/19 10:07:35;;;;;;;2.17;1.20;;;;;;;20.21;96.30;98110.66;5054356;28;20235;-72
2023/09/19 10:10:12;;;;;;;5.53;1.40;;;;;;;20.35;90.66;98103.53;5054838;28;20186;-72
2023/09/19 10:12:45;;;;;;;3.27;1.30;;;;;;;20.42;95.02;98101.34;5054627;28;20239;-72
2023/09/19 10:15:15;;;;;;;1.40;1.30;;;;;;;20.21;90.69;98104.47;5054136;28;20189;-73
2023/09/19 10:17:44;;;;;;;1.40;1.27;;;;;;;20.34;91.25;98099.22;5053974;28;20793;-72
2023/09/19 10:20:22;;;;;;;3.87;1.47;;;;;;;20.56;86.19;98096.09;5054067;28;20221;-72
2023/09/19 10:22:57;;;;;;;5.53;1.20;;;;;;;20.43;86.24;98092.16;5054494;28;20201;-72
2023/09/19 10:25:28;;;;;;;2.23;1.43;;;;;;;20.27;87.90;98089.84;5054392;28;20559;-72
2023/09/19 10:27:57;;;;;;;2.07;1.20;;;;;;;20.57;90.33;98092.34;5054090;28;20312;-72
2023/09/19 10:30:25;;;;;;;1.57;1.40;;;;;;;20.86;88.80;98090.47;5053851;28;20217;-72
2023/09/19 10:33:00;;;;;;;1.33;1.13;;;;;;;20.97;86.98;98100.13;5053878;28;20209;-72
2023/09/19 10:35:27;;;;;;;2.60;1.23;;;;;;;20.95;84.02;98089.63;5054198;28;20200;-72
2023/09/19 10:37:57;;;;;;;2.80;1.30;;;;;;;20.75;82.93;98089.75;5052962;28;20256;-72
2023/09/19 10:40:30;;;;;;;2.37;1.33;;;;;;;20.71;80.56;98093.31;5054229;28;20214;-72
2023/09/19 10:43:02;;;;;;;1.30;1.20;;;;;;;20.97;82.64;98097.41;5053550;28;20201;-72
2023/09/19 10:45:31;;;;;;;1.80;1.10;;;;;;;20.86;75.75;98090.47;5054235;28;20217;-72
2023/09/19 10:47:58;;;;;;;2.00;1.27;;;;;;;21.06;76.18;98103.81;5053523;28;20775;-73
2023/09/19 10:50:25;;;;;;;3.27;1.27;;;;;;;20.86;73.47;98109.38;5053556;28;20296;-73
2023/09/19 10:53:00;;;;;;;2.17;1.13;;;;;;;20.77;72.45;98089.47;5053725;28;20208;-73
2023/09/19 10:55:29;;;;;;;1.57;1.13;;;;;;;21.01;77.22;98093.88;5053625;28;20195;-72
2023/09/19 10:57:57;;;;;;;1.63;1.23;;;;;;;21.20;73.28;98092.06;5053505;28;20328;-72
2023/09/19 11:00:26;;;;;;;2.63;0.97;;;;;;;20.95;70.39;98097.72;5052899;28;20213;-72
2023/09/19 11:03:11;;;;;;;1.10;1.00;;;;;;;21.19;70.77;98095.88;5053222;28;20209;-72
2023/09/19 11:05:41;;;;;;;2.70;1.20;;;;;;;21.40;71.44;98096.47;5052942;28;20686;-72
2023/09/19 11:08:12;;;;;;;1.73;1.03;;;;;;;21.36;68.19;98090.00;5053172;28;20660;-72
2023/09/19 11:10:51;;;;;;;2.10;1.20;;;;;;;21.33;66.78;98088.69;5053835;28;20247;-72
2023/09/19 11:13:28;;;;;;;2.23;1.00;;;;;;;21.37;67.10;98095.13;5053572;28;20671;-72
2023/09/19 11:15:58;;;;;;;1.20;1.07;;;;;;;21.46;68.06;98087.19;5053138;28;20212;-72
2023/09/19 11:18:43;;;;;;;2.87;1.20;;;;;;;21.12;68.98;98081.84;5052873;28;20232;-73
2023/09/19 11:21:29;;;;;;;2.00;1.30;;;;;;;21.20;65.08;98085.88;5053391;28;20211;-73
2023/09/19 11:24:11;;;;;;;1.20;1.10;;;;;;;21.20;65.59;98085.88;5053535;28;20209;-73
2023/09/19 11:26:47;;;;;;;2.33;1.00;;;;;;;21.55;67.61;98074.63;5052964;28;20212;-72
2023/09/19 11:29:26;;;;;;;2.43;1.20;;;;;;;21.52;66.23;98062.50;5052902;28;20225;-72
2023/09/19 11:31:57;;;;;;;1.40;1.30;;;;;;;21.76;64.91;98066.03;5053133;28;20205;-73
2023/09/19 11:34:45;;;;;;;1.13;1.03;;;;;;;21.60;61.31;98064.56;5054033;28;20508;-73
2023/09/19 11:37:12;;;;;;;1.20;0.93;;;;;;;21.48;59.65;98060.66;5052213;28;20291;-73
2023/09/19 11:39:39;;;;;;;1.10;1.00;;;;;;;21.56;60.19;98054.63;5052478;28;20224;-73
2023/09/19 11:42:44;;;;;;;1.20;1.07;;;;;;;21.57;61.29;98059.72;5052298;28;20725;-73